createdAt,value
2022-09-20T00:01:03.610Z,98024.66
2022-09-20T00:06:48.080Z,98028.48
2022-09-20T00:08:10.511Z,98034.97
2022-09-20T00:12:00.818Z,98032.27
2022-09-20T00:13:25.121Z,98040.34
2022-09-20T00:14:45.876Z,98036.77
2022-09-20T00:16:16.564Z,98030.75
2022-09-20T00:18:12.931Z,98034.55
2022-09-20T00:19:23.020Z,98039.16
2022-09-20T00:20:30.692Z,98036.98
2022-09-20T00:21:38.734Z,98038.98
2022-09-20T00:22:45.627Z,98045.80
2022-09-20T00:23:53.875Z,98042.69
2022-09-20T00:25:02.653Z,98036.94
2022-09-20T00:26:09.953Z,98044.42
2022-09-20T00:27:18.167Z,98039.23
2022-09-20T00:28:26.927Z,98042.30
2022-09-20T00:29:37.324Z,98039.38
2022-09-20T00:30:45.849Z,98040.84
2022-09-20T00:31:53.755Z,98048.12
2022-09-20T00:32:59.580Z,98051.61
2022-09-20T00:34:26.460Z,98052.26
2022-09-20T00:35:35.284Z,98052.41
2022-09-20T00:36:42.303Z,98048.80
2022-09-20T00:37:50.652Z,98046.34
2022-09-20T00:39:00.981Z,98052.44
2022-09-20T00:40:10.586Z,98051.95
2022-09-20T00:41:17.217Z,98055.08
2022-09-20T00:42:30.017Z,98054.83
2022-09-20T00:43:45.019Z,98053.20
2022-09-20T00:44:52.164Z,98055.16
2022-09-20T00:46:04.886Z,98055.61
2022-09-20T00:47:34.344Z,98053.40
2022-09-20T00:48:42.148Z,98055.92
2022-09-20T00:49:49.192Z,98052.42
2022-09-20T00:50:58.338Z,98054.00
2022-09-20T00:52:04.320Z,98055.50
2022-09-20T00:53:12.811Z,98057.46
2022-09-20T00:54:20.993Z,98058.55
2022-09-20T00:55:28.779Z,98054.98
2022-09-20T00:56:39.419Z,98061.05
2022-09-20T00:57:49.051Z,98057.61
2022-09-20T00:59:04.760Z,98057.67
2022-09-20T01:00:12.801Z,98062.01
2022-09-20T01:01:25.562Z,98062.02
2022-09-20T01:02:31.854Z,98059.08
2022-09-20T01:03:39.215Z,98058.56
2022-09-20T01:04:46.771Z,98060.24
2022-09-20T01:05:56.627Z,98060.25
2022-09-20T01:07:04.418Z,98062.86
2022-09-20T01:08:11.014Z,98065.14
2022-09-20T01:09:17.738Z,98063.21
2022-09-20T01:10:24.362Z,98067.02
2022-09-20T01:11:32.963Z,98070.73
2022-09-20T01:24:54.550Z,98081.41
2022-09-20T01:30:27.747Z,98087.03
2022-09-20T01:31:37.472Z,98089.92
2022-09-20T01:33:22.359Z,98089.31
2022-09-20T01:34:31.577Z,98090.20
2022-09-20T01:35:37.528Z,98090.00
2022-09-20T01:36:50.507Z,98085.16
2022-09-20T01:38:08.453Z,98086.80
2022-09-20T01:39:36.015Z,98090.67
2022-09-20T01:40:51.440Z,98091.16
2022-09-20T01:42:06.605Z,98092.73
2022-09-20T01:43:31.765Z,98096.27
2022-09-20T01:45:02.577Z,98103.64
2022-09-20T01:46:19.907Z,98102.35
2022-09-20T01:47:40.554Z,98102.02
2022-09-20T01:48:48.469Z,98105.43
2022-09-20T01:50:46.388Z,98101.30
2022-09-20T01:52:15.206Z,98100.46
2022-09-20T01:53:39.715Z,98104.32
2022-09-20T01:55:05.142Z,98101.17
2022-09-20T01:56:35.530Z,98105.48
2022-09-20T01:57:48.314Z,98110.48
2022-09-20T01:59:24.722Z,98108.70
2022-09-20T02:00:59.091Z,98111.81
2022-09-20T02:02:11.584Z,98109.64
2022-09-20T02:03:56.007Z,98107.91
2022-09-20T02:05:24.083Z,98107.19
2022-09-20T02:07:12.702Z,98114.82
2022-09-20T02:11:13.472Z,98115.45
2022-09-20T02:12:40.348Z,98120.20
2022-09-20T02:14:03.116Z,98121.73
2022-09-20T02:15:46.550Z,98129.30
2022-09-20T02:17:16.119Z,98128.23
2022-09-20T02:18:53.714Z,98136.51
2022-09-20T02:20:31.649Z,98134.88
2022-09-20T02:21:47.302Z,98135.41
2022-09-20T02:23:23.432Z,98139.61
2022-09-20T02:24:45.239Z,98142.72
2022-09-20T02:26:12.335Z,98141.23
2022-09-20T02:27:33.896Z,98144.44
2022-09-20T02:28:50.747Z,98149.66
2022-09-20T02:30:26.647Z,98149.91
2022-09-20T02:31:49.886Z,98153.55
2022-09-20T02:42:20.294Z,98174.78
2022-09-20T02:44:07.903Z,98178.46
2022-09-20T02:45:51.640Z,98182.27
2022-09-20T02:47:49.396Z,98183.13
2022-09-20T02:51:49.475Z,98189.86
2022-09-20T02:53:53.954Z,98194.97
2022-09-20T02:57:57.571Z,98204.09
2022-09-20T02:59:28.490Z,98212.48
2022-09-20T03:00:57.368Z,98216.50
2022-09-20T03:02:04.043Z,98218.10
2022-09-20T03:03:21.993Z,98219.73
2022-09-20T03:05:15.539Z,98223.92
2022-09-20T03:06:49.871Z,98225.80
2022-09-20T03:21:03.780Z,98252.84
2022-09-20T03:22:38.894Z,98257.30
2022-09-20T03:24:29.183Z,98260.65
2022-09-20T03:25:41.313Z,98259.73
2022-09-20T03:27:08.168Z,98262.85
2022-09-20T03:28:26.182Z,98263.05
2022-09-20T03:29:41.791Z,98264.88
2022-09-20T03:31:09.414Z,98266.71
2022-09-20T03:32:25.812Z,98268.35
2022-09-20T03:33:56.012Z,98267.57
2022-09-20T03:35:17.459Z,98271.52
2022-09-20T03:36:28.819Z,98275.10
2022-09-20T03:38:08.526Z,98276.33
2022-09-20T03:39:48.921Z,98282.33
2022-09-20T03:41:07.119Z,98282.25
2022-09-20T03:42:38.797Z,98286.64
2022-09-20T03:54:21.626Z,98299.94
2022-09-20T03:55:46.180Z,98300.19
2022-09-20T03:57:21.483Z,98301.61
2022-09-20T03:58:32.858Z,98304.58
2022-09-20T03:59:49.358Z,98308.58
2022-09-20T04:01:32.406Z,98310.55
2022-09-20T04:02:53.505Z,98314.02
2022-09-20T04:04:15.008Z,98317.08
2022-09-20T04:05:31.834Z,98315.81
2022-09-20T04:06:39.128Z,98315.86
2022-09-20T04:08:01.526Z,98314.59
2022-09-20T04:09:44.411Z,98316.41
2022-09-20T04:11:10.479Z,98318.91
2022-09-20T04:12:49.517Z,98321.81
2022-09-20T04:14:14.023Z,98321.77
2022-09-20T04:15:24.536Z,98324.11
2022-09-20T04:16:36.508Z,98324.29
2022-09-20T04:18:25.740Z,98320.67
2022-09-20T04:19:33.321Z,98323.09
2022-09-20T04:20:45.305Z,98322.73
2022-09-20T04:22:03.707Z,98323.06
2022-09-20T04:23:39.811Z,98326.70
2022-09-20T04:25:11.147Z,98328.98
2022-09-20T04:26:19.997Z,98333.15
2022-09-20T04:27:28.048Z,98337.27
2022-09-20T04:29:04.155Z,98335.45
2022-09-20T04:30:24.814Z,98336.19
2022-09-20T04:31:58.394Z,98337.33
2022-09-20T04:33:23.029Z,98336.31
2022-09-20T04:34:57.330Z,98335.08
2022-09-20T04:36:31.906Z,98339.96
2022-09-20T04:37:40.176Z,98343.33
2022-09-20T04:38:52.754Z,98345.86
2022-09-20T04:40:11.530Z,98349.41
2022-09-20T04:41:39.276Z,98349.80
2022-09-20T04:43:25.066Z,98352.59
2022-09-20T04:45:09.387Z,98354.91
2022-09-20T04:46:29.920Z,98353.60
2022-09-20T04:48:14.322Z,98353.00
2022-09-20T04:49:52.524Z,98353.98
2022-09-20T04:51:23.602Z,98358.05
2022-09-20T04:53:07.805Z,98353.78
2022-09-20T04:54:47.335Z,98354.06
2022-09-20T04:56:30.041Z,98353.52
2022-09-20T04:58:00.873Z,98355.73
2022-09-20T04:59:37.026Z,98356.83
2022-09-20T05:00:59.037Z,98358.13
2022-09-20T05:02:35.001Z,98359.11
2022-09-20T05:04:17.706Z,98360.16
2022-09-20T05:05:51.193Z,98355.65
2022-09-20T05:07:33.921Z,98355.47
2022-09-20T05:09:15.411Z,98359.14
2022-09-20T05:10:58.605Z,98362.79
2022-09-20T05:12:29.440Z,98363.17
2022-09-20T05:14:07.059Z,98361.91
2022-09-20T05:15:35.500Z,98361.88
2022-09-20T05:17:02.518Z,98363.48
2022-09-20T05:18:40.181Z,98360.61
2022-09-20T05:20:13.412Z,98361.10
2022-09-20T05:21:36.016Z,98362.75
2022-09-20T05:23:03.641Z,98364.91
2022-09-20T05:24:53.901Z,98364.62
2022-09-20T05:26:12.666Z,98362.79
2022-09-20T05:27:39.705Z,98362.72
2022-09-20T05:28:51.555Z,98361.88
2022-09-20T05:30:08.063Z,98363.48
2022-09-20T05:31:35.308Z,98362.31
2022-09-20T05:32:56.305Z,98361.95
2022-09-20T05:34:33.848Z,98358.80
2022-09-20T05:36:08.608Z,98358.79
2022-09-20T05:37:41.941Z,98356.48
2022-09-20T05:39:07.309Z,98361.77
2022-09-20T05:40:30.034Z,98363.16
2022-09-20T05:42:10.939Z,98363.86
2022-09-20T05:43:32.642Z,98368.81
2022-09-20T05:45:00.401Z,98368.27
2022-09-20T05:46:17.870Z,98370.70
2022-09-20T05:47:33.596Z,98369.95
2022-09-20T05:48:59.020Z,98371.27
2022-09-20T05:50:39.983Z,98373.94
2022-09-20T05:51:50.999Z,98376.58
2022-09-20T05:53:35.014Z,98381.65
2022-09-20T05:55:18.546Z,98382.17
2022-09-20T05:56:31.506Z,98383.76
2022-09-20T05:58:18.512Z,98381.98
2022-09-20T05:59:42.223Z,98383.58
2022-09-20T06:01:13.566Z,98382.75
2022-09-20T06:02:45.443Z,98389.09
2022-09-20T06:04:13.404Z,98394.11
2022-09-20T06:05:51.709Z,98397.34
2022-09-20T06:07:26.769Z,98396.60
2022-09-20T06:09:02.104Z,98398.52
2022-09-20T06:10:52.178Z,98399.02
2022-09-20T06:12:06.068Z,98406.34
2022-09-20T06:13:49.443Z,98406.67
2022-09-20T06:15:22.273Z,98408.02
2022-09-20T06:16:59.835Z,98407.86
2022-09-20T06:18:16.096Z,98403.73
2022-09-20T06:19:51.525Z,98404.14
2022-09-20T06:21:16.188Z,98402.98
2022-09-20T06:23:00.638Z,98404.45
2022-09-20T06:24:08.121Z,98406.96
2022-09-20T06:25:32.415Z,98408.33
2022-09-20T06:26:40.006Z,98411.75
2022-09-20T06:28:13.810Z,98414.64
2022-09-20T06:29:21.121Z,98413.47
2022-09-20T06:30:32.690Z,98415.85
2022-09-20T06:31:40.431Z,98415.77
2022-09-20T06:33:01.452Z,98419.66
2022-09-20T06:34:12.051Z,98419.14
2022-09-20T06:35:21.190Z,98420.14
2022-09-20T06:36:59.024Z,98419.71
2022-09-20T06:38:38.185Z,98420.02
2022-09-20T06:40:41.022Z,98422.59
2022-09-20T06:41:47.459Z,98417.71
2022-09-20T06:42:55.659Z,98418.33
2022-09-20T06:44:02.191Z,98420.52
2022-09-20T06:45:08.708Z,98421.52
2022-09-20T06:46:16.062Z,98423.72
2022-09-20T06:47:23.852Z,98423.80
2022-09-20T06:48:32.547Z,98424.92
2022-09-20T06:49:41.741Z,98423.55
2022-09-20T06:50:52.790Z,98420.82
2022-09-20T06:52:00.112Z,98423.88
2022-09-20T06:53:06.385Z,98427.65
2022-09-20T06:54:15.252Z,98427.95
2022-09-20T06:55:28.462Z,98425.90
2022-09-20T06:56:37.775Z,98426.80
2022-09-20T06:57:45.479Z,98419.48
2022-09-20T06:58:55.878Z,98423.15
2022-09-20T07:00:04.024Z,98421.52
2022-09-20T07:01:16.178Z,98424.15
2022-09-20T07:02:30.079Z,98420.74
2022-09-20T07:03:36.237Z,98423.67
2022-09-20T07:04:42.094Z,98427.06
2022-09-20T07:05:49.486Z,98425.98
2022-09-20T07:07:04.152Z,98425.95
2022-09-20T07:08:15.797Z,98427.92
2022-09-20T07:09:22.858Z,98428.85
2022-09-20T07:10:31.550Z,98432.41
2022-09-20T07:11:37.689Z,98430.98
2022-09-20T07:12:43.637Z,98433.69
2022-09-20T07:13:52.584Z,98436.77
2022-09-20T07:15:01.386Z,98434.46
2022-09-20T07:16:08.965Z,98432.41
2022-09-20T07:17:15.554Z,98434.48
2022-09-20T07:18:21.476Z,98429.73
2022-09-20T07:19:30.711Z,98427.08
2022-09-20T07:20:39.002Z,98428.46
2022-09-20T07:21:46.069Z,98426.17
2022-09-20T07:22:57.051Z,98427.05
2022-09-20T07:24:06.086Z,98428.72
2022-09-20T07:25:14.866Z,98427.75
2022-09-20T07:26:26.276Z,98429.45
2022-09-20T07:27:35.171Z,98426.39
2022-09-20T07:28:42.463Z,98429.59
2022-09-20T07:29:48.636Z,98432.14
2022-09-20T07:30:56.544Z,98431.81
2022-09-20T07:32:03.022Z,98433.04
2022-09-20T07:33:12.766Z,98434.64
2022-09-20T07:34:21.569Z,98432.95
2022-09-20T07:35:30.304Z,98434.58
2022-09-20T07:36:36.183Z,98436.14
2022-09-20T07:37:42.453Z,98438.25
2022-09-20T07:38:54.598Z,98438.26
2022-09-20T07:40:00.234Z,98440.23
2022-09-20T07:41:08.917Z,98440.73
2022-09-20T07:42:15.024Z,98439.93
2022-09-20T07:43:20.849Z,98440.02
2022-09-20T07:44:28.338Z,98440.92
2022-09-20T07:45:35.680Z,98439.10
2022-09-20T07:46:41.471Z,98441.12
2022-09-20T07:47:47.594Z,98440.04
2022-09-20T07:48:54.065Z,98440.08
2022-09-20T07:50:01.091Z,98438.67
2022-09-20T07:51:09.170Z,98440.80
2022-09-20T07:52:15.353Z,98433.70
2022-09-20T07:53:21.503Z,98436.11
2022-09-20T07:54:28.151Z,98433.99
2022-09-20T07:55:36.267Z,98435.80
2022-09-20T07:56:42.884Z,98436.32
2022-09-20T07:57:50.540Z,98436.20
2022-09-20T07:58:56.964Z,98440.38
2022-09-20T08:00:02.454Z,98439.50
2022-09-20T08:01:21.473Z,98438.59
2022-09-20T08:03:53.839Z,98436.77
2022-09-20T08:05:00.335Z,98435.91
2022-09-20T08:06:11.950Z,98436.05
2022-09-20T08:07:18.284Z,98431.55
2022-09-20T08:08:24.313Z,98429.93
2022-09-20T08:09:30.199Z,98431.04
2022-09-20T08:10:36.821Z,98430.39
2022-09-20T08:11:47.209Z,98428.77
2022-09-20T08:14:25.260Z,98426.16
2022-09-20T08:15:32.628Z,98421.47
2022-09-20T08:16:42.285Z,98423.54
2022-09-20T08:17:50.749Z,98425.52
2022-09-20T08:19:00.764Z,98422.94
2022-09-20T08:20:09.517Z,98421.45
2022-09-20T08:21:18.504Z,98424.31
2022-09-20T08:22:26.881Z,98420.21
2022-09-20T08:23:41.587Z,98426.38
2022-09-20T08:24:49.475Z,98426.18
2022-09-20T08:25:58.495Z,98422.81
2022-09-20T08:27:07.612Z,98421.52
2022-09-20T08:28:16.144Z,98422.41
2022-09-20T08:29:22.486Z,98421.53
2022-09-20T08:30:30.012Z,98420.49
2022-09-20T08:31:37.728Z,98414.30
2022-09-20T08:32:44.690Z,98416.22
2022-09-20T08:33:52.264Z,98416.27
2022-09-20T08:34:58.738Z,98415.26
2022-09-20T08:36:04.837Z,98415.08
2022-09-20T08:37:10.722Z,98412.82
2022-09-20T08:39:59.404Z,98408.73
2022-09-20T08:41:06.829Z,98406.49
2022-09-20T08:42:37.891Z,98407.34
2022-09-20T08:44:05.177Z,98408.38
2022-09-20T08:45:36.719Z,98406.96
2022-09-20T08:46:50.716Z,98406.54
2022-09-20T08:48:00.608Z,98407.10
2022-09-20T08:49:10.989Z,98406.04
2022-09-20T08:50:18.109Z,98411.29
2022-09-20T08:51:24.743Z,98409.17
2022-09-20T08:52:36.366Z,98410.24
2022-09-20T08:53:53.640Z,98410.48
2022-09-20T08:55:01.282Z,98412.86
2022-09-20T08:56:08.278Z,98407.17
2022-09-20T08:57:17.104Z,98403.69
2022-09-20T08:58:23.418Z,98408.48
2022-09-20T08:59:32.445Z,98409.83
2022-09-20T09:00:39.920Z,98410.33
2022-09-20T09:01:46.741Z,98409.27
2022-09-20T09:02:57.018Z,98408.61
2022-09-20T09:04:19.068Z,98410.15
2022-09-20T09:05:41.027Z,98412.27
2022-09-20T09:06:47.396Z,98409.27
2022-09-20T09:07:55.875Z,98410.32
2022-09-20T09:09:02.651Z,98405.09
2022-09-20T09:10:09.655Z,98404.20
2022-09-20T09:11:17.613Z,98403.19
2022-09-20T09:12:27.939Z,98399.59
2022-09-20T09:14:05.250Z,98404.56
2022-09-20T09:15:30.871Z,98398.66
2022-09-20T09:16:36.987Z,98401.92
2022-09-20T09:17:44.433Z,98398.98
2022-09-20T09:18:52.238Z,98397.71
2022-09-20T09:20:02.689Z,98397.27
2022-09-20T09:21:08.961Z,98396.60
2022-09-20T09:22:23.573Z,98396.11
2022-09-20T09:23:32.652Z,98396.00
2022-09-20T09:24:40.285Z,98395.42
2022-09-20T09:25:46.246Z,98391.82
2022-09-20T09:26:52.806Z,98390.48
2022-09-20T09:28:01.778Z,98389.84
2022-09-20T09:29:18.266Z,98385.73
2022-09-20T09:30:32.540Z,98388.23
2022-09-20T09:31:40.352Z,98388.96
2022-09-20T09:32:46.051Z,98385.58
2022-09-20T09:33:52.130Z,98384.88
2022-09-20T09:35:21.098Z,98384.77
2022-09-20T09:36:27.328Z,98383.78
2022-09-20T09:37:33.545Z,98387.45
2022-09-20T09:38:40.750Z,98386.18
2022-09-20T09:39:48.427Z,98384.57
2022-09-20T09:40:59.578Z,98383.39
2022-09-20T09:42:29.927Z,98382.98
2022-09-20T09:43:38.018Z,98382.15
2022-09-20T09:44:44.010Z,98380.64
2022-09-20T09:45:50.134Z,98382.89
2022-09-20T09:46:57.200Z,98381.84
2022-09-20T09:48:03.766Z,98379.34
2022-09-20T09:49:22.664Z,98381.11
2022-09-20T09:50:34.031Z,98379.73
2022-09-20T09:51:40.226Z,98384.44
2022-09-20T09:53:00.060Z,98385.55
2022-09-20T09:54:06.186Z,98385.11
2022-09-20T09:55:14.492Z,98386.40
2022-09-20T09:56:22.406Z,98386.98
2022-09-20T09:57:44.208Z,98381.85
2022-09-20T09:59:11.707Z,98382.31
2022-09-20T10:00:24.590Z,98383.10
2022-09-20T10:01:40.880Z,98386.13
2022-09-20T10:03:12.053Z,98386.71
2022-09-20T10:04:30.121Z,98385.02
2022-09-20T10:06:13.046Z,98383.55
2022-09-20T10:07:42.690Z,98384.77
2022-09-20T10:09:25.189Z,98382.80
2022-09-20T10:11:00.530Z,98387.12
2022-09-20T10:12:34.736Z,98389.98
2022-09-20T10:14:00.249Z,98389.67
2022-09-20T10:15:11.664Z,98387.02
2022-09-20T10:16:37.775Z,98386.13
2022-09-20T10:17:45.541Z,98388.32
2022-09-20T10:18:56.560Z,98387.48
2022-09-20T10:20:40.420Z,98383.86
2022-09-20T10:21:52.994Z,98386.74
2022-09-20T10:25:10.885Z,98390.98
2022-09-20T10:26:22.561Z,98394.18
2022-09-20T10:27:59.219Z,98395.86
2022-09-20T10:29:41.611Z,98398.45
2022-09-20T10:30:56.112Z,98396.83
2022-09-20T10:32:15.422Z,98399.37
2022-09-20T10:33:48.907Z,98401.47
2022-09-20T10:35:23.208Z,98402.41
2022-09-20T10:36:34.788Z,98399.70
2022-09-20T10:37:49.526Z,98400.20
2022-09-20T10:39:22.221Z,98400.81
2022-09-20T10:41:07.691Z,98399.36
2022-09-20T10:42:50.528Z,98407.34
2022-09-20T10:44:20.920Z,98408.95
2022-09-20T10:46:30.386Z,98410.00
2022-09-20T10:47:21.116Z,98409.70
2022-09-20T10:48:33.363Z,98410.52
2022-09-20T10:50:10.119Z,98412.39
2022-09-20T10:51:29.266Z,98413.48
2022-09-20T10:52:56.718Z,98409.64
2022-09-20T10:54:27.301Z,98410.58
2022-09-20T10:55:41.210Z,98412.26
2022-09-20T10:56:50.980Z,98414.93
2022-09-20T10:58:09.973Z,98413.38
2022-09-20T10:59:27.481Z,98418.81
2022-09-20T11:00:55.129Z,98420.80
2022-09-20T11:02:28.970Z,98420.41
2022-09-20T11:04:14.263Z,98424.61
2022-09-20T11:05:40.274Z,98430.41
2022-09-20T11:07:19.087Z,98426.75
2022-09-20T11:08:27.128Z,98429.54
2022-09-20T11:09:38.685Z,98428.90
2022-09-20T11:10:46.248Z,98432.46
2022-09-20T11:11:56.185Z,98432.70
2022-09-20T11:13:56.950Z,98432.98
2022-09-20T11:15:13.998Z,98433.84
2022-09-20T11:16:23.865Z,98437.27
2022-09-20T11:17:38.229Z,98436.20
2022-09-20T11:18:51.204Z,98434.79
2022-09-20T11:20:07.710Z,98434.18
2022-09-20T11:21:19.870Z,98432.20
2022-09-20T11:22:40.564Z,98434.05
2022-09-20T11:24:24.472Z,98434.33
2022-09-20T11:25:45.471Z,98432.89
2022-09-20T11:27:05.301Z,98426.79
2022-09-20T11:28:26.061Z,98427.80
2022-09-20T11:30:02.565Z,98429.38
2022-09-20T11:31:34.598Z,98428.27
2022-09-20T11:32:54.221Z,98431.98
2022-09-20T11:34:33.499Z,98434.40
2022-09-20T11:35:47.744Z,98436.23
2022-09-20T11:37:03.633Z,98436.77
2022-09-20T11:38:15.559Z,98436.83
2022-09-20T11:39:41.564Z,98434.96
2022-09-20T11:41:03.284Z,98434.60
2022-09-20T11:42:15.989Z,98434.31
2022-09-20T11:43:22.562Z,98433.20
2022-09-20T11:44:28.247Z,98431.56
2022-09-20T11:45:34.820Z,98433.48
2022-09-20T11:47:03.478Z,98436.06
2022-09-20T11:48:12.558Z,98435.91
2022-09-20T11:49:31.738Z,98435.39
2022-09-20T11:51:07.265Z,98439.19
2022-09-20T11:52:50.217Z,98441.45
2022-09-20T11:54:09.768Z,98446.69
2022-09-20T11:55:29.320Z,98446.88
2022-09-20T11:56:35.710Z,98449.55
2022-09-20T11:57:42.050Z,98446.48
2022-09-20T11:58:52.006Z,98444.98
2022-09-20T11:59:58.478Z,98448.34
2022-09-20T12:01:04.267Z,98449.16
2022-09-20T12:02:45.968Z,98452.42
2022-09-20T12:04:00.262Z,98452.93
2022-09-20T12:05:46.531Z,98451.17
2022-09-20T12:07:42.489Z,98450.77
2022-09-20T12:08:51.499Z,98451.88
2022-09-20T12:10:02.287Z,98452.98
2022-09-20T12:11:12.708Z,98450.45
2022-09-20T12:12:24.419Z,98450.81
2022-09-20T12:13:36.019Z,98453.86
2022-09-20T12:14:43.007Z,98457.27
2022-09-20T12:16:00.822Z,98457.40
2022-09-20T12:17:07.124Z,98459.48
2022-09-20T12:18:32.154Z,98461.23
2022-09-20T12:19:39.668Z,98465.39
2022-09-20T12:20:46.010Z,98467.39
2022-09-20T12:22:00.834Z,98466.63
2022-09-20T12:23:42.369Z,98465.89
2022-09-20T12:24:49.378Z,98469.11
2022-09-20T12:26:08.658Z,98469.65
2022-09-20T12:27:34.133Z,98474.50
2022-09-20T12:28:44.515Z,98472.48
2022-09-20T12:29:55.987Z,98477.20
2022-09-20T12:31:34.956Z,98479.88
2022-09-20T12:32:52.821Z,98485.58
2022-09-20T12:34:12.343Z,98484.61
2022-09-20T12:36:00.501Z,98483.30
2022-09-20T12:37:08.410Z,98485.68
2022-09-20T12:38:31.722Z,98485.37
2022-09-20T12:39:40.617Z,98484.22
2022-09-20T12:41:14.924Z,98481.40
2022-09-20T12:42:32.031Z,98484.00
2022-09-20T12:43:40.345Z,98485.02
2022-09-20T12:44:52.089Z,98482.12
2022-09-20T12:46:03.849Z,98486.63
2022-09-20T12:47:13.753Z,98486.48
2022-09-20T12:48:22.994Z,98487.42
2022-09-20T12:50:02.247Z,98489.92
2022-09-20T12:51:39.848Z,98491.48
2022-09-20T12:52:59.719Z,98490.69
2022-09-20T12:54:09.229Z,98494.42
2022-09-20T12:55:33.167Z,98494.21
2022-09-20T12:56:41.586Z,98491.23
2022-09-20T12:57:49.380Z,98493.15
2022-09-20T12:58:58.346Z,98494.92
2022-09-20T13:00:06.887Z,98491.80
2022-09-20T13:01:14.630Z,98494.50
2022-09-20T13:02:56.344Z,98496.25
2022-09-20T13:04:40.082Z,98495.85
2022-09-20T13:05:47.729Z,98498.08
2022-09-20T13:07:57.881Z,98495.34
2022-09-20T13:09:05.989Z,98497.01
2022-09-20T13:10:38.810Z,98498.92
2022-09-20T13:12:12.181Z,98496.92
2022-09-20T13:13:45.524Z,98494.27
2022-09-20T13:14:53.229Z,98498.48
2022-09-20T13:15:59.955Z,98499.61
2022-09-20T13:17:32.495Z,98501.48
2022-09-20T13:18:38.647Z,98503.05
2022-09-20T13:19:47.863Z,98502.44
2022-09-20T13:20:56.865Z,98499.80
2022-09-20T13:22:03.785Z,98496.08
2022-09-20T13:23:10.986Z,98496.65
2022-09-20T13:24:19.403Z,98496.58
2022-09-20T13:25:26.143Z,98496.79
2022-09-20T13:26:41.904Z,98497.94
2022-09-20T13:28:10.464Z,98499.42
2022-09-20T13:29:33.895Z,98509.31
2022-09-20T13:30:43.206Z,98511.70
2022-09-20T13:31:50.328Z,98514.71
2022-09-20T13:33:00.077Z,98517.16
2022-09-20T13:34:20.401Z,98517.25
2022-09-20T13:35:30.516Z,98514.33
2022-09-20T13:36:39.324Z,98516.34
2022-09-20T13:37:55.172Z,98514.76
2022-09-20T13:39:01.305Z,98513.17
2022-09-20T13:40:07.751Z,98514.33
2022-09-20T13:41:13.916Z,98514.02
2022-09-20T13:42:21.595Z,98520.56
2022-09-20T13:43:39.436Z,98527.13
2022-09-20T13:44:45.555Z,98530.05
2022-09-20T13:45:54.529Z,98524.57
2022-09-20T13:47:00.661Z,98523.52
2022-09-20T13:48:06.565Z,98520.35
2022-09-20T13:49:24.176Z,98521.33
2022-09-20T13:50:32.348Z,98524.34
2022-09-20T13:51:38.341Z,98519.92
2022-09-20T13:52:57.399Z,98521.06
2022-09-20T13:54:25.729Z,98523.69
2022-09-20T13:55:33.768Z,98522.13
2022-09-20T13:56:39.587Z,98524.96
2022-09-20T13:57:48.750Z,98527.91
2022-09-20T13:58:54.894Z,98525.77
2022-09-20T14:00:00.929Z,98524.45
2022-09-20T14:01:31.239Z,98523.28
2022-09-20T14:02:37.292Z,98526.39
2022-09-20T14:03:43.034Z,98525.90
2022-09-20T14:04:51.222Z,98530.14
2022-09-20T14:06:02.462Z,98530.55
2022-09-20T14:07:09.134Z,98530.08
2022-09-20T14:08:27.789Z,98530.29
2022-09-20T14:09:35.005Z,98528.05
2022-09-20T14:10:44.875Z,98529.95
2022-09-20T14:11:51.280Z,98536.77
2022-09-20T14:13:02.816Z,98533.57
2022-09-20T14:14:10.547Z,98537.04
2022-09-20T14:15:17.602Z,98533.66
2022-09-20T14:16:29.638Z,98537.06
2022-09-20T14:17:36.963Z,98536.69
2022-09-20T14:18:43.116Z,98534.48
2022-09-20T14:19:50.601Z,98535.27
2022-09-20T14:20:56.781Z,98536.91
2022-09-20T14:22:06.511Z,98535.72
2022-09-20T14:24:03.114Z,98536.46
2022-09-20T14:25:15.156Z,98537.23
2022-09-20T14:27:01.225Z,98540.15
2022-09-20T14:28:22.830Z,98538.90
2022-09-20T14:29:41.751Z,98542.08
2022-09-20T14:30:48.062Z,98543.52
2022-09-20T14:31:54.014Z,98544.25
2022-09-20T14:33:01.760Z,98544.89
2022-09-20T14:34:13.174Z,98544.44
2022-09-20T14:35:25.101Z,98549.97
2022-09-20T14:36:31.479Z,98547.84
2022-09-20T14:37:47.300Z,98552.10
2022-09-20T14:39:03.458Z,98552.83
2022-09-20T14:40:29.087Z,98556.23
2022-09-20T14:41:39.857Z,98556.10
2022-09-20T14:42:47.550Z,98556.01
2022-09-20T14:43:57.792Z,98555.80
2022-09-20T14:45:05.237Z,98554.39
2022-09-20T14:46:18.140Z,98557.92
2022-09-20T14:47:59.591Z,98558.21
2022-09-20T14:49:24.130Z,98557.11
2022-09-20T14:50:38.316Z,98557.95
2022-09-20T14:51:45.579Z,98560.38
2022-09-20T14:53:19.615Z,98555.83
2022-09-20T14:54:32.804Z,98552.45
2022-09-20T14:55:58.705Z,98554.33
2022-09-20T14:57:05.579Z,98555.69
2022-09-20T14:58:17.165Z,98560.98
2022-09-20T14:59:31.046Z,98562.31
2022-09-20T15:01:06.660Z,98564.17
2022-09-20T15:02:14.669Z,98562.67
2022-09-20T15:03:44.854Z,98564.12
2022-09-20T15:05:00.932Z,98562.92
2022-09-20T15:06:11.027Z,98564.30
2022-09-20T15:07:17.024Z,98561.34
2022-09-20T15:08:22.994Z,98557.86
2022-09-20T15:09:28.692Z,98558.13
2022-09-20T15:10:34.664Z,98557.69
2022-09-20T15:11:41.471Z,98560.92
2022-09-20T15:12:47.300Z,98562.61
2022-09-20T15:13:53.515Z,98560.97
2022-09-20T15:15:01.249Z,98558.73
2022-09-20T15:16:07.738Z,98556.94
2022-09-20T15:17:23.203Z,98556.91
2022-09-20T15:18:35.322Z,98556.06
2022-09-20T15:19:41.743Z,98553.86
2022-09-20T15:20:47.903Z,98552.51
2022-09-20T15:21:54.821Z,98557.14
2022-09-20T15:23:01.113Z,98553.65
2022-09-20T15:24:09.103Z,98550.73
2022-09-20T15:25:25.736Z,98548.02
2022-09-20T15:26:35.004Z,98550.35
2022-09-20T15:27:41.328Z,98550.58
2022-09-20T15:28:50.077Z,98551.69
2022-09-20T15:29:57.040Z,98554.58
2022-09-20T15:31:05.663Z,98554.17
2022-09-20T15:32:17.962Z,98554.28
2022-09-20T15:33:25.546Z,98556.14
2022-09-20T15:34:31.906Z,98550.68
2022-09-20T15:35:43.799Z,98549.32
2022-09-20T15:36:51.755Z,98550.29
2022-09-20T15:37:57.714Z,98548.95
2022-09-20T15:39:03.870Z,98548.58
2022-09-20T15:40:10.358Z,98551.63
2022-09-20T15:41:16.375Z,98551.17
2022-09-20T15:42:22.432Z,98549.71
2022-09-20T15:43:31.571Z,98547.09
2022-09-20T15:44:37.487Z,98548.70
2022-09-20T15:45:50.682Z,98551.31
2022-09-20T15:46:58.689Z,98550.41
2022-09-20T15:48:04.586Z,98548.53
2022-09-20T15:49:12.524Z,98545.27
2022-09-20T15:50:19.636Z,98546.98
2022-09-20T15:51:27.116Z,98548.59
2022-09-20T15:52:42.308Z,98548.22
2022-09-20T15:53:59.689Z,98544.50
2022-09-20T15:55:07.751Z,98544.99
2022-09-20T15:56:21.843Z,98550.29
2022-09-20T15:57:30.856Z,98546.58
2022-09-20T15:58:37.866Z,98549.05
2022-09-20T15:59:50.911Z,98551.80
2022-09-20T16:01:02.978Z,98549.87
2022-09-20T16:02:11.912Z,98549.64
2022-09-20T16:03:19.671Z,98550.35
2022-09-20T16:04:26.750Z,98556.27
2022-09-20T16:05:32.910Z,98556.70
2022-09-20T16:06:39.030Z,98561.72
2022-09-20T16:07:46.701Z,98560.56
2022-09-20T16:08:52.674Z,98556.83
2022-09-20T16:09:59.042Z,98558.03
2022-09-20T16:11:05.970Z,98560.18
2022-09-20T16:12:12.683Z,98559.32
2022-09-20T16:13:20.954Z,98557.93
2022-09-20T16:14:31.728Z,98556.75
2022-09-20T16:18:03.509Z,98559.06
2022-09-20T16:19:18.419Z,98560.11
2022-09-20T16:20:27.507Z,98563.95
2022-09-20T16:21:33.991Z,98564.30
2022-09-20T16:22:41.904Z,98565.63